Terminal Aerodrome Forecast
Issued by NWS

Home | Current Version | Previous Version | Text Only | Print | Product List | Glossary On
Versions: 1 2 3 4 5 6 7 8 9 10 11 12 13 14 15 16 17 18 19 20 21
000
FTUS43 KJKL 270525
TAFSME
TAF
KSME 270525Z 2706/2806 00000KT P6SM SCT130 SCT250
     FM270800 00000KT 5SM BR SCT150
      TEMPO 2708/2712 2SM BR SCT003
     FM271300 VRB03KT P6SM SCT200
     FM271700 VRB05KT P6SM VCTS BKN050CB BKN150=

USA.gov is the U.S. government's official web portal to all federal, state and local government web resources and services.